Acme, WA

11:12 PM PDT on May 04, 2015 (GMT -0700)
Sudden Valley/Lake Whatcom | | Change Station
CLOSE
Current Station
Personal Weather Station
Location: Bellingham, WA
Elevation: 648 ft
Nearby Weather Stations

Elev 648 ft 48.70 °N, 122.32 °W | Updated 8 seconds ago

Overcast
Overcast
45.9 °F
Feels Like 46 °F
N
0.0
Wind Variable Wind from SW
Gusts 2.0 mph

Today
High -- | Low -- °F
--% Chance of Precip.
Yesterday
High -- | Low -- °F
Precip. -- in
5:44 AM 8:28 PM
Full, 99% visible
Pressure 29.95 in
Visibility 10.0 miles
Clouds Overcast 6000 ft
Windchill 46 °F
Dew Point 45 °F
Humidity 97%
Rainfall 0.32 in
Snow Depth Not available.
UV 0 out of 12
Pollen 9.00 out of 12
Air Quality Not available.
Flu Activity Sporadic
METAR KBLI 050553Z 13005KT 10SM OVC060 10/08 A2993 RMK AO2 RAB30E43 SLP142 P0003 60007 T01000083 10156 20094 50005

More Conditions Fewer Conditions

Pressure 29.95 in
Visibility 10.0 miles
Clouds Overcast 6000 ft
Windchill 46 °F
Dew Point 45 °F
Humidity 97%
Rainfall 0.32 in
Snow Depth Not available.
UV 0 out of 12
Pollen 9.00 out of 12
Air Quality Not available.
Flu Activity Sporadic
METAR KBLI 050553Z 13005KT 10SM OVC060 10/08 A2993 RMK AO2 RAB30E43 SLP142 P0003 60007 T01000083 10156 20094 50005

More Conditions Fewer Conditions

Nepal has a long way to go to dig out and rebuild from a devastating earthquake. We have teamed up with several charities and organizations to make contributing to the relief effort as easy as possible.
How you can help: Portlight Strategies | Red Cross

10-Day Weather Forecast

Almanac

Astronomy

May. 04, 2015 Rise Set
Actual Time
Civil Twilight
Nautical Twilight
Astronomical Twilight
Moon
Length of Visible Light
Length of Day
Tomorrow will be .
, % of the Moon is Illuminated

Today's Extremes

State Highs State Lows

Community

WunderPhotos

Upload Photos

1,818,814 photos uploaded!

WunderBlogs® & News

Nearby

Air Quality

  Air Quality AQ Index Pollutant
Not available.

Snow Depth

Station Depth Elevation

Earthquake Activity

City Distance Mag. Time & Date
Minimum magnitude displayed is 2.5.

Coastal Water Temperatures

Place Temperature

Stations

Nearby Weather Stations

Station Location Temp. Windchill Dew Point Humidity Wind Precip. Elev Updated Type